Terminal Aerodrome Forecast
Issued by NWS Raleigh/Durham, NC

Home | Current Version | Previous Version | Text Only | Print | Product List | Glossary On
Versions: 1 2 3 4 5 6 7 8 9 10 11 12 13 14 15 16 17 18 19 20 21 22 23 24
000
FTUS42 KRAH 240857 AAA
TAFRDU
TAF AMD
KRDU 240857Z 2409/2506 23011KT P6SM SCT020 BKN050 BKN250
      TEMPO 2409/2410 23012G20KT BKN018
     FM241800 26009KT P6SM VCTS SCT035CB BKN080 PROB30 2420/2424
      VRB15G25KT 3SM -SHRA BKN020 BKN035 OVC120
     FM250100 25003KT P6SM FEW035 SCT090 BKN250=

USA.gov is the U.S. government's official web portal to all federal, state and local government web resources and services.